Terminal Aerodrome Forecast
Issued by NWS

Home | Current Version | Previous Version | Text Only | Print | Product List | Glossary On
Versions: 1 2 3 4 5 6 7 8 9 10 11 12
000
FTAK31 PAJN 300500
TAFAKT
TAF
PAKT 300526Z 3006/3106 00000KT P6SM SCT090
     FM301300 32006KT P6SM SCT100
     FM301600 32011KT P6SM SCT100
     FM310400 31004KT P6SM SKC
      AMD LTD TO CLD VIS AND WIND 3006/3015=

USA.gov is the U.S. government's official web portal to all federal, state and local government web resources and services.